KSJN/SJN METAR and TAF weather

Enter ICAO airport designator
Station Type Date Time Source
KSJN METAR 2019/12/09 21:54 UTC NOAA

KSJN 092154Z AUTO 30006KT 10SM FEW038 08/00 A2997 RMK AO2 SLP115 T00830000


Station Type Date Time Source
KSJN Decoded METAR 2019/12/09 21:54 UTC NOAA

ST JOHNS INDUSTRIAL AIRPRK, AZ, United States (KSJN) 34-31N 109-23W 1745M
Dec 09, 2019 - 04:54 PM EST / 2019.12.09 2154 UTC
Wind: from the WNW (300 degrees) at 7 MPH (6 KT):0
Visibility: 10 mile(s):0
Sky conditions: mostly clear
Temperature: 46.9 F (8.3 C)
Dew Point: 32.0 F (0.0 C)
Relative Humidity: 55%
Pressure (altimeter): 29.97 in. Hg (1014 hPa)
ob: KSJN 092154Z AUTO 30006KT 10SM FEW038 08/00 A2997 RMK AO2 SLP115 T00830000
cycle: 22

Station Type Date Time Source
KSJN TAF UTC NOAA

Error!

Example: see airport list